Time;durP1;ratioP1;P1;durP2;ratioP2;P2;SDS_P1;SDS_P2;PMS_P1;PMS_P2;Temp;Humidity;BMP_temperature;BMP_pressure;BME280_temperature;BME280_humidity;BME280_pressure;Samples;Min_cycle;Max_cycle;Signal;HPM_P1;HPM_P2
2021/01/25 00:01:10;;;;;;;33.33;22.10;;;;;;;;;;5089948;28;20398;-83
2021/01/25 00:03:36;;;;;;;31.27;22.30;;;;;;;;;;5090849;28;20390;-83
2021/01/25 00:06:02;;;;;;;33.22;23.75;;;;;;;;;;5089618;28;20405;-83
2021/01/25 00:08:29;;;;;;;33.67;23.38;;;;;;;;;;5087599;28;20948;-83
2021/01/25 00:10:55;;;;;;;33.53;23.70;;;;;;;;;;5091016;28;20509;-82
2021/01/25 00:13:20;;;;;;;35.22;24.73;;;;;;;;;;5093494;28;20418;-83
2021/01/25 00:15:48;;;;;;;36.85;24.38;;;;;;;;;;5088417;28;20453;-83
2021/01/25 00:18:14;;;;;;;34.78;24.95;;;;;;;;;;5084455;28;20396;-83
2021/01/25 00:20:40;;;;;;;33.67;24.88;;;;;;;;;;5086302;28;20424;-83
2021/01/25 00:23:06;;;;;;;33.47;24.70;;;;;;;;;;5109337;27;20427;-83
2021/01/25 00:25:32;;;;;;;33.65;23.65;;;;;;;;;;5092643;28;21151;-84
2021/01/25 00:27:58;;;;;;;35.97;24.83;;;;;;;;;;5085744;28;20860;-83
2021/01/25 00:30:24;;;;;;;34.25;23.98;;;;;;;;;;5075772;28;20418;-84
2021/01/25 00:32:50;;;;;;;32.78;23.15;;;;;;;;;;5092525;28;20462;-83
2021/01/25 00:35:16;;;;;;;34.03;23.60;;;;;;;;;;5090428;28;20397;-82
2021/01/25 00:37:42;;;;;;;31.90;22.45;;;;;;;;;;5087594;28;20396;-87
2021/01/25 00:40:09;;;;;;;34.35;24.35;;;;;;;;;;5090489;28;20400;-82
2021/01/25 00:42:35;;;;;;;36.17;25.15;;;;;;;;;;5086063;28;20398;-84
2021/01/25 00:45:01;;;;;;;36.77;25.67;;;;;;;;;;5088689;28;20452;-84
2021/01/25 00:47:27;;;;;;;32.97;24.20;;;;;;;;;;5087228;28;20398;-82
2021/01/25 00:49:53;;;;;;;35.25;24.90;;;;;;;;;;5086765;28;20406;-82
2021/01/25 00:52:19;;;;;;;36.17;25.33;;;;;;;;;;5078282;28;20460;-83
2021/01/25 00:54:44;;;;;;;34.13;25.58;;;;;;;;;;5086188;28;20497;-83
2021/01/25 00:57:10;;;;;;;37.05;26.15;;;;;;;;;;5084189;28;20402;-82
2021/01/25 00:59:36;;;;;;;43.30;25.30;;;;;;;;;;5090747;28;20389;-82
2021/01/25 01:02:02;;;;;;;35.57;24.90;;;;;;;;;;5089822;28;20374;-83
2021/01/25 01:04:28;;;;;;;37.03;25.40;;;;;;;;;;5087389;28;20527;-83
2021/01/25 01:06:54;;;;;;;35.50;24.67;;;;;;;;;;5085315;28;20473;-83
2021/01/25 01:09:20;;;;;;;36.90;25.65;;;;;;;;;;5098942;28;20422;-81
2021/01/25 01:11:46;;;;;;;41.88;25.92;;;;;;;;;;5085694;28;20389;-83
2021/01/25 01:14:12;;;;;;;36.70;25.48;;;;;;;;;;5087336;28;20386;-82
2021/01/25 01:16:38;;;;;;;35.63;24.73;;;;;;;;;;5089849;28;20390;-83
2021/01/25 01:19:04;;;;;;;35.37;25.70;;;;;;;;;;5086345;28;20921;-83
2021/01/25 01:21:30;;;;;;;41.60;27.38;;;;;;;;;;5086954;28;20719;-83
2021/01/25 01:23:56;;;;;;;38.00;27.05;;;;;;;;;;5086578;28;20523;-83
2021/01/25 01:26:22;;;;;;;38.65;26.60;;;;;;;;;;5084697;28;20412;-84
2021/01/25 01:28:48;;;;;;;35.13;25.60;;;;;;;;;;5091894;28;20374;-83
2021/01/25 01:31:14;;;;;;;36.97;26.42;;;;;;;;;;5089532;28;20382;-83
2021/01/25 01:33:40;;;;;;;34.60;25.15;;;;;;;;;;5085104;28;20496;-82
2021/01/25 01:36:06;;;;;;;34.10;24.60;;;;;;;;;;5088502;28;20397;-83
2021/01/25 01:38:32;;;;;;;38.28;25.50;;;;;;;;;;5092290;28;20402;-84
2021/01/25 01:40:59;;;;;;;37.13;24.90;;;;;;;;;;5090430;28;20401;-82
2021/01/25 01:43:25;;;;;;;36.47;25.40;;;;;;;;;;5089595;28;20447;-83
2021/01/25 01:45:51;;;;;;;34.53;25.35;;;;;;;;;;5085915;28;20406;-82
2021/01/25 01:48:17;;;;;;;34.40;24.88;;;;;;;;;;5086783;28;20443;-83
2021/01/25 01:50:43;;;;;;;37.67;25.52;;;;;;;;;;5083019;28;20520;-83
2021/01/25 01:53:09;;;;;;;37.80;25.80;;;;;;;;;;5084723;28;20929;-82
2021/01/25 01:55:35;;;;;;;36.33;25.52;;;;;;;;;;5088823;28;20929;-84
2021/01/25 01:58:02;;;;;;;36.15;25.67;;;;;;;;;;5083392;28;20881;-84
2021/01/25 02:00:28;;;;;;;36.95;25.35;;;;;;;;;;5083093;28;20379;-82
2021/01/25 02:02:54;;;;;;;39.40;26.00;;;;;;;;;;5083430;28;20400;-83
2021/01/25 02:05:20;;;;;;;37.30;25.55;;;;;;;;;;5090386;28;20457;-82
2021/01/25 02:07:48;;;;;;;37.05;26.27;;;;;;;;;;5082271;28;20416;-83
2021/01/25 02:10:14;;;;;;;36.42;26.13;;;;;;;;;;5083103;28;20721;-82
2021/01/25 02:12:42;;;;;;;36.65;25.65;;;;;;;;;;5069181;28;20395;-81
2021/01/25 02:15:08;;;;;;;37.35;26.35;;;;;;;;;;5083997;28;20405;-82
2021/01/25 02:17:34;;;;;;;40.33;28.02;;;;;;;;;;5085820;28;20753;-82
2021/01/25 02:20:20;;;;;;;37.80;26.35;;;;;;;;;;5085056;28;21127;-83
2021/01/25 02:23:05;;;;;;;37.72;26.70;;;;;;;;;;5065424;28;20411;-82
2021/01/25 02:25:43;;;;;;;37.33;26.88;;;;;;;;;;5082459;28;20725;-83
2021/01/25 02:28:09;;;;;;;41.00;28.40;;;;;;;;;;5081420;28;25111;-83
2021/01/25 02:30:35;;;;;;;39.40;27.42;;;;;;;;;;5084500;28;20480;-83
2021/01/25 02:33:01;;;;;;;40.70;28.33;;;;;;;;;;5074857;28;20410;-82
2021/01/25 02:35:28;;;;;;;40.72;27.75;;;;;;;;;;5080903;28;20401;-83
2021/01/25 02:37:55;;;;;;;44.60;31.17;;;;;;;;;;5086782;28;20427;-82
2021/01/25 02:40:22;;;;;;;37.28;26.50;;;;;;;;;;5086100;28;20415;-82
2021/01/25 02:42:48;;;;;;;39.20;28.27;;;;;;;;;;5084883;28;20760;-82
2021/01/25 02:45:15;;;;;;;40.20;28.35;;;;;;;;;;5082323;28;20389;-84
2021/01/25 02:47:41;;;;;;;39.10;27.30;;;;;;;;;;5086466;28;20398;-82
2021/01/25 02:50:08;;;;;;;44.05;28.95;;;;;;;;;;5088786;28;20800;-82
2021/01/25 02:52:33;;;;;;;37.60;27.02;;;;;;;;;;5086015;28;21083;-81
2021/01/25 02:55:01;;;;;;;34.42;25.15;;;;;;;;;;5086255;28;20429;-81
2021/01/25 02:57:27;;;;;;;38.67;26.30;;;;;;;;;;5089939;28;20415;-82
2021/01/25 02:59:53;;;;;;;38.63;27.15;;;;;;;;;;5085353;28;20485;-81
2021/01/25 03:02:19;;;;;;;36.50;26.02;;;;;;;;;;5083644;28;20478;-81
2021/01/25 03:04:46;;;;;;;36.17;26.58;;;;;;;;;;5085177;28;20418;-81
2021/01/25 03:07:12;;;;;;;39.50;27.38;;;;;;;;;;5092098;28;20408;-82
2021/01/25 03:09:38;;;;;;;36.13;26.50;;;;;;;;;;5089419;28;20414;-82
2021/01/25 03:12:05;;;;;;;41.13;27.85;;;;;;;;;;5082488;28;20399;-82
2021/01/25 03:14:31;;;;;;;37.03;26.98;;;;;;;;;;5090310;28;20928;-81
2021/01/25 03:16:57;;;;;;;37.28;26.63;;;;;;;;;;5086849;28;20695;-82
2021/01/25 03:19:23;;;;;;;39.73;28.37;;;;;;;;;;5082054;28;20455;-83
2021/01/25 03:21:51;;;;;;;36.55;26.80;;;;;;;;;;5089886;28;20394;-82
2021/01/25 03:24:17;;;;;;;41.47;27.33;;;;;;;;;;5087572;28;20419;-82
2021/01/25 03:26:43;;;;;;;37.17;26.75;;;;;;;;;;5087669;28;20387;-82
2021/01/25 03:29:10;;;;;;;39.75;24.98;;;;;;;;;;5086194;28;20493;-81
2021/01/25 03:31:36;;;;;;;38.55;26.92;;;;;;;;;;5088612;28;20694;-82
2021/01/25 03:34:03;;;;;;;37.50;26.15;;;;;;;;;;5087210;28;20398;-81
2021/01/25 03:36:29;;;;;;;36.60;26.48;;;;;;;;;;5092963;28;20397;-81
2021/01/25 03:38:56;;;;;;;38.60;26.48;;;;;;;;;;5089578;28;20752;-81
2021/01/25 03:41:22;;;;;;;36.00;26.57;;;;;;;;;;5087992;28;20465;-79
2021/01/25 03:43:48;;;;;;;36.78;26.67;;;;;;;;;;5083559;28;20412;-79
2021/01/25 03:46:14;;;;;;;36.92;26.92;;;;;;;;;;5095951;28;20911;-79
2021/01/25 03:48:40;;;;;;;39.80;27.65;;;;;;;;;;5088106;28;20564;-79
2021/01/25 03:51:06;;;;;;;37.33;26.93;;;;;;;;;;5088115;28;20425;-79
2021/01/25 03:53:32;;;;;;;34.97;25.75;;;;;;;;;;5088565;28;20438;-79
2021/01/25 03:55:58;;;;;;;40.67;28.40;;;;;;;;;;5081926;28;20441;-79
2021/01/25 03:58:24;;;;;;;37.83;27.15;;;;;;;;;;5088329;28;20474;-78
2021/01/25 04:00:50;;;;;;;40.40;28.98;;;;;;;;;;5087213;28;20476;-79
2021/01/25 04:03:16;;;;;;;41.42;28.13;;;;;;;;;;5086271;28;20386;-79
2021/01/25 04:05:42;;;;;;;37.97;27.08;;;;;;;;;;5082954;28;20418;-80
2021/01/25 04:08:08;;;;;;;38.20;27.73;;;;;;;;;;5084042;28;20475;-79
2021/01/25 04:10:34;;;;;;;38.97;26.97;;;;;;;;;;5084483;28;20483;-79
2021/01/25 04:13:00;;;;;;;37.65;26.80;;;;;;;;;;5097996;27;20499;-78
2021/01/25 04:15:26;;;;;;;38.57;26.87;;;;;;;;;;5083741;28;20896;-80
2021/01/25 04:17:52;;;;;;;36.35;25.00;;;;;;;;;;5087159;28;20402;-79
2021/01/25 04:20:18;;;;;;;32.55;23.67;;;;;;;;;;5083427;28;20382;-79
2021/01/25 04:22:44;;;;;;;36.67;26.58;;;;;;;;;;5087256;28;20877;-79
2021/01/25 04:25:10;;;;;;;36.63;25.58;;;;;;;;;;5081914;28;20409;-79
2021/01/25 04:27:36;;;;;;;37.65;27.05;;;;;;;;;;5084908;28;20423;-79
2021/01/25 04:30:08;;;;;;;36.72;26.48;;;;;;;;;;5087973;28;20497;-79
2021/01/25 04:32:37;;;;;;;39.20;28.08;;;;;;;;;;5083977;28;20797;-79
2021/01/25 04:35:07;;;;;;;37.63;26.55;;;;;;;;;;5086634;28;20408;-79
2021/01/25 04:37:33;;;;;;;36.55;27.00;;;;;;;;;;5081380;28;20399;-79
2021/01/25 04:39:59;;;;;;;38.17;27.02;;;;;;;;;;5090398;28;20402;-79
2021/01/25 04:42:26;;;;;;;38.38;26.75;;;;;;;;;;5081948;28;20402;-79
2021/01/25 04:44:52;;;;;;;38.15;26.40;;;;;;;;;;5085085;28;20394;-79
2021/01/25 04:47:22;;;;;;;36.70;26.77;;;;;;;;;;5086243;28;20412;-79
2021/01/25 04:49:49;;;;;;;35.40;25.00;;;;;;;;;;5084736;28;20417;-79
2021/01/25 04:52:16;;;;;;;34.90;25.42;;;;;;;;;;5084005;28;20422;-78
2021/01/25 04:54:42;;;;;;;33.72;24.15;;;;;;;;;;5075904;28;20479;-79
2021/01/25 04:57:09;;;;;;;35.93;24.80;;;;;;;;;;5069603;28;20395;-79
2021/01/25 04:59:36;;;;;;;33.47;24.35;;;;;;;;;;5080836;28;20435;-80
2021/01/25 05:02:02;;;;;;;33.15;23.52;;;;;;;;;;5076723;28;20782;-80
2021/01/25 05:04:28;;;;;;;35.15;25.10;;;;;;;;;;5079470;28;20883;-81
2021/01/25 05:06:54;;;;;;;36.85;24.80;;;;;;;;;;5081295;28;21143;-81
2021/01/25 05:09:20;;;;;;;34.13;25.65;;;;;;;;;;5088007;28;20410;-80
2021/01/25 05:11:56;;;;;;;35.70;25.67;;;;;;;;;;5087096;28;20447;-80
2021/01/25 05:14:22;;;;;;;37.78;26.40;;;;;;;;;;5092696;28;20490;-80
2021/01/25 05:16:48;;;;;;;37.20;26.52;;;;;;;;;;5082355;28;20481;-81
2021/01/25 05:19:14;;;;;;;38.15;26.60;;;;;;;;;;5074369;28;20402;-81
2021/01/25 05:21:44;;;;;;;39.53;27.80;;;;;;;;;;5087660;28;20793;-81
2021/01/25 05:24:11;;;;;;;37.97;27.23;;;;;;;;;;5084659;28;20447;-81
2021/01/25 05:26:40;;;;;;;38.88;26.27;;;;;;;;;;5074800;28;20420;-81
2021/01/25 05:29:06;;;;;;;37.83;27.80;;;;;;;;;;5079352;28;20484;-81
2021/01/25 05:31:32;;;;;;;38.28;26.92;;;;;;;;;;5087748;28;20391;-81
2021/01/25 05:33:58;;;;;;;38.28;26.58;;;;;;;;;;5083523;28;20402;-81
2021/01/25 05:36:25;;;;;;;39.35;27.30;;;;;;;;;;5080707;28;20469;-81
2021/01/25 05:38:52;;;;;;;38.53;26.58;;;;;;;;;;5074952;28;20429;-82
2021/01/25 05:41:19;;;;;;;36.75;26.70;;;;;;;;;;5086299;28;20396;-81
2021/01/25 05:43:46;;;;;;;36.47;26.27;;;;;;;;;;5089346;28;20394;-80
2021/01/25 05:46:13;;;;;;;36.63;26.10;;;;;;;;;;5089534;28;20391;-82
2021/01/25 05:48:39;;;;;;;37.45;25.92;;;;;;;;;;5082930;28;20758;-84
2021/01/25 05:51:13;;;;;;;39.78;27.50;;;;;;;;;;5097218;28;20938;-81
2021/01/25 05:53:40;;;;;;;38.17;27.88;;;;;;;;;;5084620;28;20416;-84
2021/01/25 05:56:06;;;;;;;40.60;27.20;;;;;;;;;;5086791;28;20403;-82
2021/01/25 05:58:32;;;;;;;39.17;26.77;;;;;;;;;;5085409;28;20907;-83
2021/01/25 06:00:59;;;;;;;38.75;27.25;;;;;;;;;;5083745;28;20394;-83
2021/01/25 06:03:27;;;;;;;35.45;25.88;;;;;;;;;;5084615;28;20393;-82
2021/01/25 06:05:54;;;;;;;36.97;26.10;;;;;;;;;;5084285;28;20439;-81
2021/01/25 06:08:25;;;;;;;37.03;25.63;;;;;;;;;;5085686;28;20427;-82
2021/01/25 06:10:59;;;;;;;37.83;25.90;;;;;;;;;;5071819;28;20436;-82
2021/01/25 06:13:26;;;;;;;35.70;25.58;;;;;;;;;;5076754;28;20408;-82
2021/01/25 06:15:53;;;;;;;37.10;26.45;;;;;;;;;;5068667;28;20447;-83
2021/01/25 06:18:19;;;;;;;35.23;26.03;;;;;;;;;;5079488;28;20372;-81
2021/01/25 06:20:46;;;;;;;36.60;26.48;;;;;;;;;;5075586;28;20464;-82
2021/01/25 06:23:12;;;;;;;38.17;26.90;;;;;;;;;;5078618;28;20477;-82
2021/01/25 06:25:39;;;;;;;36.05;25.38;;;;;;;;;;5075618;28;20397;-83
2021/01/25 06:28:05;;;;;;;36.22;25.85;;;;;;;;;;5083512;28;20479;-82
2021/01/25 06:30:31;;;;;;;36.65;25.65;;;;;;;;;;5076452;28;20455;-82
2021/01/25 06:32:59;;;;;;;35.20;25.93;;;;;;;;;;5079156;28;20468;-82
2021/01/25 06:35:28;;;;;;;34.25;25.55;;;;;;;;;;5067814;28;20401;-82
2021/01/25 06:37:54;;;;;;;38.03;27.15;;;;;;;;;;5097472;28;20402;-83
2021/01/25 06:40:30;;;;;;;39.33;26.25;;;;;;;;;;5068374;28;20406;-83
2021/01/25 06:42:56;;;;;;;37.67;26.20;;;;;;;;;;5088053;28;20387;-83
2021/01/25 06:45:23;;;;;;;38.28;25.90;;;;;;;;;;5070031;28;20401;-82
2021/01/25 06:47:50;;;;;;;39.83;27.77;;;;;;;;;;5070654;28;20873;-82
2021/01/25 06:50:17;;;;;;;42.22;29.42;;;;;;;;;;5094914;28;20751;-83
2021/01/25 06:52:43;;;;;;;41.28;29.00;;;;;;;;;;5087290;28;20456;-82
2021/01/25 06:55:09;;;;;;;40.70;28.27;;;;;;;;;;5071348;28;20384;-83
2021/01/25 06:57:36;;;;;;;40.83;28.33;;;;;;;;;;5068227;28;20465;-82
2021/01/25 07:00:06;;;;;;;40.72;28.60;;;;;;;;;;5067893;28;20888;-82
2021/01/25 07:02:32;;;;;;;37.05;26.88;;;;;;;;;;5095183;28;20436;-84
2021/01/25 07:05:01;;;;;;;38.45;27.08;;;;;;;;;;5070133;28;20429;-84
2021/01/25 07:07:32;;;;;;;38.55;26.58;;;;;;;;;;5069985;28;20477;-87
2021/01/25 07:09:58;;;;;;;35.95;25.45;;;;;;;;;;5078110;28;20794;-83
2021/01/25 07:12:25;;;;;;;38.42;26.13;;;;;;;;;;5090161;28;20449;-82
2021/01/25 07:14:57;;;;;;;37.53;26.00;;;;;;;;;;5088929;28;20487;-83
2021/01/25 07:17:24;;;;;;;35.72;25.52;;;;;;;;;;5090061;28;20390;-85
2021/01/25 07:19:50;;;;;;;36.65;25.45;;;;;;;;;;5087211;28;20396;-83
2021/01/25 07:22:17;;;;;;;37.40;27.00;;;;;;;;;;5085779;28;20404;-85
2021/01/25 07:24:43;;;;;;;37.85;27.83;;;;;;;;;;5088624;28;20400;-81
2021/01/25 07:27:09;;;;;;;39.22;26.50;;;;;;;;;;5087335;28;20390;-84
2021/01/25 07:29:35;;;;;;;36.47;26.23;;;;;;;;;;5087866;28;21347;-83
2021/01/25 07:32:01;;;;;;;37.73;27.33;;;;;;;;;;5086719;28;20390;-84
2021/01/25 07:34:31;;;;;;;42.65;29.52;;;;;;;;;;5088700;28;20382;-84
2021/01/25 07:36:58;;;;;;;43.90;29.85;;;;;;;;;;5089175;28;20724;-83
2021/01/25 07:39:24;;;;;;;44.08;30.65;;;;;;;;;;5086032;28;20493;-83
2021/01/25 07:41:50;;;;;;;43.13;30.48;;;;;;;;;;5087419;28;20463;-84
2021/01/25 07:44:16;;;;;;;42.97;31.10;;;;;;;;;;5087828;28;20397;-83
2021/01/25 07:46:45;;;;;;;40.37;29.27;;;;;;;;;;5091939;28;20395;-84
2021/01/25 07:52:27;;;;;;;40.10;27.50;;;;;;;;;;5086901;28;20397;-90
2021/01/25 07:54:53;;;;;;;38.08;26.35;;;;;;;;;;5088355;28;20428;-81
2021/01/25 07:57:31;;;;;;;41.88;28.60;;;;;;;;;;5095260;28;20424;-84
2021/01/25 07:59:59;;;;;;;42.45;29.33;;;;;;;;;;5094051;28;20383;-84
2021/01/25 08:02:26;;;;;;;39.45;27.55;;;;;;;;;;5090999;28;20408;-84
2021/01/25 08:04:52;;;;;;;39.10;28.05;;;;;;;;;;5093018;28;20799;-81
2021/01/25 08:07:19;;;;;;;46.40;31.50;;;;;;;;;;5083961;28;20394;-84
2021/01/25 08:09:45;;;;;;;66.22;42.05;;;;;;;;;;5083066;28;20434;-83
2021/01/25 08:12:15;;;;;;;65.80;41.50;;;;;;;;;;5086650;28;20405;-85
2021/01/25 08:14:45;;;;;;;77.95;46.65;;;;;;;;;;5086404;28;20397;-84
2021/01/25 08:17:19;;;;;;;60.47;37.33;;;;;;;;;;5083684;28;20893;-84
2021/01/25 08:20:08;;;;;;;59.78;38.83;;;;;;;;;;5084556;28;20930;-84
2021/01/25 08:22:45;;;;;;;59.70;40.03;;;;;;;;;;5093461;27;20499;-85
2021/01/25 08:25:16;;;;;;;53.83;36.20;;;;;;;;;;5089942;28;20382;-84
2021/01/25 08:27:53;;;;;;;58.22;37.05;;;;;;;;;;5084336;28;20875;-84
2021/01/25 08:30:22;;;;;;;96.43;47.70;;;;;;;;;;5093250;28;20418;-83
2021/01/25 08:32:51;;;;;;;79.25;47.35;;;;;;;;;;5085336;28;21008;-84
2021/01/25 08:35:36;;;;;;;102.63;50.83;;;;;;;;;;5083324;28;20398;-82
2021/01/25 08:38:40;;;;;;;81.45;49.75;;;;;;;;;;5086818;28;21523;-83
2021/01/25 08:41:17;;;;;;;88.82;50.17;;;;;;;;;;4993844;28;20395;-82
2021/01/25 08:43:51;;;;;;;85.07;53.35;;;;;;;;;;5092145;28;20420;-83
2021/01/25 08:46:18;;;;;;;94.20;56.93;;;;;;;;;;5092097;28;20417;-81
2021/01/25 08:48:44;;;;;;;85.25;53.17;;;;;;;;;;5079379;28;20407;-86
2021/01/25 08:51:10;;;;;;;99.10;54.65;;;;;;;;;;5085842;28;20438;-82
2021/01/25 08:53:36;;;;;;;91.63;50.83;;;;;;;;;;5082592;28;20394;-81
2021/01/25 08:56:11;;;;;;;82.82;51.33;;;;;;;;;;5088790;28;20390;-83
2021/01/25 08:58:37;;;;;;;78.82;50.15;;;;;;;;;;5087031;28;20397;-83
2021/01/25 09:01:12;;;;;;;81.50;53.05;;;;;;;;;;5082305;28;20390;-83
2021/01/25 09:03:38;;;;;;;83.43;51.77;;;;;;;;;;5081474;28;20634;-83
2021/01/25 09:06:05;;;;;;;84.37;50.73;;;;;;;;;;5097738;28;20386;-83
2021/01/25 09:08:32;;;;;;;76.28;50.38;;;;;;;;;;5093824;28;20395;-81
2021/01/25 09:10:59;;;;;;;77.50;50.92;;;;;;;;;;5084346;28;20474;-83
2021/01/25 09:13:28;;;;;;;69.47;46.55;;;;;;;;;;5078728;28;22644;-82
2021/01/25 09:15:54;;;;;;;71.25;46.63;;;;;;;;;;5085979;28;20386;-80
2021/01/25 09:18:20;;;;;;;68.03;46.07;;;;;;;;;;5086788;28;20467;-81
2021/01/25 09:20:46;;;;;;;74.65;47.92;;;;;;;;;;5068423;28;20387;-81
2021/01/25 09:23:12;;;;;;;69.90;47.90;;;;;;;;;;5081216;28;20958;-83
2021/01/25 09:25:38;;;;;;;76.88;50.03;;;;;;;;;;5081641;28;20405;-81
2021/01/25 09:28:07;;;;;;;79.97;51.23;;;;;;;;;;5090502;28;20470;-87
2021/01/25 09:30:33;;;;;;;77.80;50.55;;;;;;;;;;5087017;28;20440;-81
2021/01/25 09:32:59;;;;;;;71.43;49.03;;;;;;;;;;5087502;28;20536;-82
2021/01/25 09:35:26;;;;;;;75.78;51.58;;;;;;;;;;5094086;28;20458;-84
2021/01/25 09:37:52;;;;;;;71.85;49.58;;;;;;;;;;5084848;28;20473;-84
2021/01/25 09:40:19;;;;;;;64.95;45.25;;;;;;;;;;5091673;28;20382;-84
2021/01/25 09:42:45;;;;;;;63.08;44.38;;;;;;;;;;5091146;28;20385;-83
2021/01/25 09:45:13;;;;;;;58.53;42.90;;;;;;;;;;5077325;28;20407;-83
2021/01/25 09:47:40;;;;;;;58.22;40.72;;;;;;;;;;5083704;28;20408;-83
2021/01/25 09:50:10;;;;;;;54.77;39.17;;;;;;;;;;5087522;28;20422;-83
2021/01/25 09:52:36;;;;;;;56.58;40.13;;;;;;;;;;5082014;28;20417;-83
2021/01/25 09:55:02;;;;;;;59.05;43.95;;;;;;;;;;5085941;28;20462;-83
2021/01/25 09:57:29;;;;;;;57.13;42.58;;;;;;;;;;5092609;28;20402;-82
2021/01/25 09:59:55;;;;;;;58.90;41.50;;;;;;;;;;5088041;28;20388;-84
2021/01/25 10:02:21;;;;;;;56.72;41.50;;;;;;;;;;5094109;28;20397;-83
2021/01/25 10:04:47;;;;;;;54.50;40.43;;;;;;;;;;5092869;28;20486;-84
2021/01/25 10:07:13;;;;;;;59.20;42.53;;;;;;;;;;5080789;28;20428;-83
2021/01/25 10:09:39;;;;;;;66.63;47.47;;;;;;;;;;5103538;28;20527;-83
2021/01/25 10:12:05;;;;;;;67.68;45.53;;;;;;;;;;5091115;28;20408;-82
2021/01/25 10:14:32;;;;;;;63.95;45.00;;;;;;;;;;5093033;28;20535;-82
2021/01/25 10:16:58;;;;;;;61.67;42.97;;;;;;;;;;5089875;28;20478;-82
2021/01/25 10:19:26;;;;;;;64.60;45.78;;;;;;;;;;5102167;28;20429;-84
2021/01/25 10:21:52;;;;;;;59.90;42.22;;;;;;;;;;5086253;28;20865;-82
2021/01/25 10:24:18;;;;;;;54.22;40.15;;;;;;;;;;5090037;28;20493;-83
2021/01/25 10:26:44;;;;;;;60.30;42.33;;;;;;;;;;5089907;28;20397;-85
2021/01/25 10:29:10;;;;;;;65.65;41.50;;;;;;;;;;5092489;28;20390;-84
2021/01/25 10:31:35;;;;;;;63.23;41.67;;;;;;;;;;5082729;28;20455;-82
2021/01/25 10:34:02;;;;;;;56.72;40.35;;;;;;;;;;5082706;28;20733;-84
2021/01/25 10:36:28;;;;;;;59.00;39.97;;;;;;;;;;5080545;28;20414;-84
2021/01/25 10:38:54;;;;;;;56.95;39.65;;;;;;;;;;5086767;28;20397;-82
2021/01/25 10:41:20;;;;;;;61.13;41.78;;;;;;;;;;5088721;28;20400;-84
2021/01/25 10:43:46;;;;;;;56.28;39.38;;;;;;;;;;5104356;28;20472;-83
2021/01/25 10:46:14;;;;;;;70.30;43.50;;;;;;;;;;5083699;28;20717;-83
2021/01/25 10:48:40;;;;;;;71.22;45.65;;;;;;;;;;5085280;28;20419;-85
2021/01/25 10:51:08;;;;;;;54.55;37.72;;;;;;;;;;5090446;28;20451;-84
2021/01/25 10:53:34;;;;;;;59.58;36.47;;;;;;;;;;5069992;28;20434;-84
2021/01/25 10:56:00;;;;;;;54.17;35.87;;;;;;;;;;5084034;28;20390;-83
2021/01/25 10:58:26;;;;;;;51.95;33.95;;;;;;;;;;5090955;28;20405;-84
2021/01/25 11:00:52;;;;;;;47.05;32.45;;;;;;;;;;5086596;28;20405;-84
2021/01/25 11:03:19;;;;;;;50.00;32.78;;;;;;;;;;5083928;28;20448;-83
2021/01/25 11:05:45;;;;;;;49.88;31.25;;;;;;;;;;5077371;28;20391;-88
2021/01/25 11:08:10;;;;;;;49.90;31.45;;;;;;;;;;5087237;28;20470;-81
2021/01/25 11:10:36;;;;;;;44.33;30.17;;;;;;;;;;5088195;28;20414;-79
2021/01/25 11:13:02;;;;;;;43.22;29.50;;;;;;;;;;5089990;28;20945;-81
2021/01/25 11:15:28;;;;;;;46.25;29.73;;;;;;;;;;5081635;28;20475;-83
2021/01/25 11:17:54;;;;;;;39.75;25.15;;;;;;;;;;5078452;28;21138;-80
2021/01/25 11:20:20;;;;;;;33.20;23.00;;;;;;;;;;5085830;28;20470;-79
2021/01/25 11:22:46;;;;;;;37.53;24.03;;;;;;;;;;5085229;28;20394;-80
2021/01/25 11:25:13;;;;;;;32.70;22.42;;;;;;;;;;5088998;28;20485;-80
2021/01/25 11:27:39;;;;;;;32.25;21.48;;;;;;;;;;5084282;28;20395;-83
2021/01/25 11:30:05;;;;;;;30.50;20.63;;;;;;;;;;5085600;28;20479;-82
2021/01/25 11:32:32;;;;;;;30.90;21.17;;;;;;;;;;5083604;28;20412;-80
2021/01/25 11:34:58;;;;;;;31.42;20.55;;;;;;;;;;5078578;28;20412;-82
2021/01/25 11:37:24;;;;;;;32.20;20.17;;;;;;;;;;5080070;28;20720;-83
2021/01/25 11:39:50;;;;;;;31.75;19.92;;;;;;;;;;5081269;28;20431;-82
2021/01/25 11:42:16;;;;;;;26.40;17.50;;;;;;;;;;5087376;28;20410;-82
2021/01/25 11:44:42;;;;;;;25.10;17.87;;;;;;;;;;5085440;28;20987;-81
2021/01/25 11:47:08;;;;;;;23.23;17.10;;;;;;;;;;5084438;28;20641;-82
2021/01/25 11:49:34;;;;;;;24.77;16.42;;;;;;;;;;5082321;28;20413;-86
2021/01/25 11:52:20;;;;;;;25.20;16.08;;;;;;;;;;5080094;28;20394;-80
2021/01/25 11:54:46;;;;;;;21.52;13.65;;;;;;;;;;5085230;28;20404;-80
2021/01/25 11:57:13;;;;;;;19.17;13.52;;;;;;;;;;5084759;28;20378;-80
2021/01/25 11:59:39;;;;;;;17.07;11.77;;;;;;;;;;5083825;28;20390;-80
2021/01/25 12:02:05;;;;;;;19.85;12.27;;;;;;;;;;5085638;28;20374;-81
2021/01/25 12:04:31;;;;;;;19.70;12.38;;;;;;;;;;5087824;28;20780;-81
2021/01/25 12:06:57;;;;;;;19.17;12.80;;;;;;;;;;5084935;28;20409;-80
2021/01/25 12:09:23;;;;;;;17.55;11.00;;;;;;;;;;5083161;28;20784;-81
2021/01/25 12:11:49;;;;;;;17.60;11.00;;;;;;;;;;5083653;28;20438;-84
2021/01/25 12:14:15;;;;;;;16.65;10.93;;;;;;;;;;5083445;28;20396;-82
2021/01/25 12:16:41;;;;;;;16.77;11.60;;;;;;;;;;5080595;28;20379;-81
2021/01/25 12:19:07;;;;;;;14.65;10.10;;;;;;;;;;5084175;28;20778;-81
2021/01/25 12:21:33;;;;;;;15.82;10.10;;;;;;;;;;5087739;28;20386;-81
2021/01/25 12:24:02;;;;;;;14.00;9.13;;;;;;;;;;5076353;28;20688;-81
2021/01/25 12:26:28;;;;;;;13.70;8.65;;;;;;;;;;5083009;28;20455;-81
2021/01/25 12:28:54;;;;;;;12.73;8.13;;;;;;;;;;5086427;28;20422;-81
2021/01/25 12:31:20;;;;;;;11.82;7.88;;;;;;;;;;5083328;28;20510;-80
2021/01/25 12:33:46;;;;;;;14.20;8.23;;;;;;;;;;5085049;28;20483;-82
2021/01/25 12:36:12;;;;;;;14.30;8.10;;;;;;;;;;5081780;28;20386;-83
2021/01/25 12:38:38;;;;;;;14.07;7.90;;;;;;;;;;5086980;28;20879;-84
2021/01/25 12:41:05;;;;;;;12.23;7.40;;;;;;;;;;5091403;28;20386;-81
2021/01/25 12:43:31;;;;;;;12.27;7.15;;;;;;;;;;5094063;28;20394;-81
2021/01/25 12:45:57;;;;;;;12.88;7.60;;;;;;;;;;5087844;28;20441;-82
2021/01/25 12:48:23;;;;;;;14.95;7.40;;;;;;;;;;5075556;28;20447;-81
2021/01/25 12:50:49;;;;;;;12.23;8.43;;;;;;;;;;5088206;28;20517;-81
2021/01/25 12:53:15;;;;;;;14.15;8.20;;;;;;;;;;5080752;28;20386;-81
2021/01/25 12:55:43;;;;;;;12.33;8.03;;;;;;;;;;5087171;28;21149;-81
2021/01/25 12:58:09;;;;;;;12.27;8.15;;;;;;;;;;5081254;28;20412;-81
2021/01/25 13:00:36;;;;;;;10.98;6.07;;;;;;;;;;5079794;28;20408;-79
2021/01/25 13:03:04;;;;;;;10.18;6.05;;;;;;;;;;5100207;28;21027;-81
2021/01/25 13:05:30;;;;;;;12.43;6.43;;;;;;;;;;5083308;28;20436;-80
2021/01/25 13:07:55;;;;;;;11.38;6.45;;;;;;;;;;5083326;28;20382;-80
2021/01/25 13:10:21;;;;;;;10.73;6.38;;;;;;;;;;5067859;28;21065;-81
2021/01/25 13:12:48;;;;;;;13.50;6.90;;;;;;;;;;5079260;28;20394;-80
2021/01/25 13:15:16;;;;;;;10.52;6.50;;;;;;;;;;5090447;28;20382;-81
2021/01/25 13:17:43;;;;;;;11.55;6.90;;;;;;;;;;5087804;28;20405;-81
2021/01/25 13:20:09;;;;;;;12.57;6.68;;;;;;;;;;5083649;28;20382;-80
2021/01/25 13:22:35;;;;;;;12.35;7.05;;;;;;;;;;5082148;28;20389;-80
2021/01/25 13:25:01;;;;;;;12.13;7.68;;;;;;;;;;5096980;28;20396;-80
2021/01/25 13:27:27;;;;;;;13.68;7.63;;;;;;;;;;5082665;28;20386;-81
2021/01/25 13:29:54;;;;;;;14.13;6.57;;;;;;;;;;5085045;28;20891;-85
2021/01/25 13:32:20;;;;;;;12.20;6.10;;;;;;;;;;5084432;28;20396;-82
2021/01/25 13:34:46;;;;;;;10.27;6.15;;;;;;;;;;5086681;28;20390;-82
2021/01/25 13:37:12;;;;;;;9.50;5.20;;;;;;;;;;5084858;28;20473;-85
2021/01/25 13:39:41;;;;;;;10.02;5.38;;;;;;;;;;5082441;28;20451;-82
2021/01/25 13:42:08;;;;;;;11.80;6.18;;;;;;;;;;5082669;28;20821;-82
2021/01/25 13:44:34;;;;;;;10.32;5.22;;;;;;;;;;5077197;28;20394;-81
2021/01/25 13:47:00;;;;;;;11.03;5.93;;;;;;;;;;5084018;28;20473;-81
2021/01/25 13:49:26;;;;;;;11.45;5.72;;;;;;;;;;5087600;28;20374;-81
2021/01/25 13:51:52;;;;;;;11.15;6.10;;;;;;;;;;5088368;28;20379;-81
2021/01/25 13:54:18;;;;;;;11.95;6.63;;;;;;;;;;5083411;28;20410;-79
2021/01/25 13:56:44;;;;;;;11.75;5.85;;;;;;;;;;5072631;28;20901;-79
2021/01/25 13:59:11;;;;;;;8.93;4.43;;;;;;;;;;5081901;28;20386;-80
2021/01/25 14:01:38;;;;;;;6.78;4.03;;;;;;;;;;5078094;28;20408;-82
2021/01/25 14:04:05;;;;;;;9.18;4.30;;;;;;;;;;5084856;28;21075;-79
2021/01/25 14:06:31;;;;;;;8.23;4.40;;;;;;;;;;5080959;28;20396;-80
2021/01/25 14:08:57;;;;;;;10.10;4.78;;;;;;;;;;5086317;28;20410;-81
2021/01/25 14:11:23;;;;;;;7.97;4.43;;;;;;;;;;5081437;28;20923;-83
2021/01/25 14:13:49;;;;;;;9.85;5.05;;;;;;;;;;5081696;28;20860;-82
2021/01/25 14:16:16;;;;;;;9.45;5.00;;;;;;;;;;5093326;28;20899;-83
2021/01/25 14:18:42;;;;;;;11.13;5.50;;;;;;;;;;5082975;28;20380;-81
2021/01/25 14:21:08;;;;;;;10.98;4.90;;;;;;;;;;5083852;28;20393;-82